sensor_id;sensor_type;location;lat;lon;timestamp;pressure;altitude;pressure_sealevel;temperature;humidity
70781;BME280;59514;48.810;2.134;2022-09-12T00:00:49;100269.81;;;17.17;81.58
70781;BME280;59514;48.810;2.134;2022-09-12T00:03:15;100261.94;;;17.15;82.10
70781;BME280;59514;48.810;2.134;2022-09-12T00:05:45;100264.91;;;17.09;82.20
70781;BME280;59514;48.810;2.134;2022-09-12T00:08:12;100264.63;;;17.10;81.87
70781;BME280;59514;48.810;2.134;2022-09-12T00:10:42;100258.13;;;17.06;82.25
70781;BME280;59514;48.810;2.134;2022-09-12T00:13:09;100250.81;;;17.02;82.31
70781;BME280;59514;48.810;2.134;2022-09-12T00:15:38;100251.09;;;17.05;82.58
70781;BME280;59514;48.810;2.134;2022-09-12T00:18:05;100255.69;;;17.05;82.19
70781;BME280;59514;48.810;2.134;2022-09-12T00:20:30;100255.16;;;17.03;82.15
70781;BME280;59514;48.810;2.134;2022-09-12T00:22:56;100248.66;;;17.04;82.69
70781;BME280;59514;48.810;2.134;2022-09-12T00:25:21;100252.72;;;17.01;82.43
70781;BME280;59514;48.810;2.134;2022-09-12T00:27:46;100244.56;;;16.96;82.83
70781;BME280;59514;48.810;2.134;2022-09-12T00:30:12;100238.06;;;16.97;82.87
70781;BME280;59514;48.810;2.134;2022-09-12T00:32:37;100230.19;;;17.01;82.24
70781;BME280;59514;48.810;2.134;2022-09-12T00:35:03;100228.00;;;17.03;82.23
70781;BME280;59514;48.810;2.134;2022-09-12T00:37:28;100232.34;;;16.99;82.41
70781;BME280;59514;48.810;2.134;2022-09-12T00:39:53;100223.94;;;16.95;82.33
70781;BME280;59514;48.810;2.134;2022-09-12T00:42:19;100221.50;;;16.99;82.39
70781;BME280;59514;48.810;2.134;2022-09-12T00:44:47;100217.44;;;16.96;82.43
70781;BME280;59514;48.810;2.134;2022-09-12T00:47:18;100215.81;;;17.00;82.37
70781;BME280;59514;48.810;2.134;2022-09-12T00:49:56;100208.75;;;16.99;82.16
70781;BME280;59514;48.810;2.134;2022-09-12T00:52:28;100212.28;;;16.95;82.20
70781;BME280;59514;48.810;2.134;2022-09-12T00:55:04;100216.09;;;16.94;82.32
70781;BME280;59514;48.810;2.134;2022-09-12T00:57:39;100220.97;;;16.92;82.62
70781;BME280;59514;48.810;2.134;2022-09-12T01:00:13;100220.97;;;16.97;83.10
70781;BME280;59514;48.810;2.134;2022-09-12T01:02:40;100213.91;;;16.96;82.06
70781;BME280;59514;48.810;2.134;2022-09-12T01:05:07;100221.75;;;16.92;82.58
70781;BME280;59514;48.810;2.134;2022-09-12T01:07:37;100222.03;;;16.91;82.41
70781;BME280;59514;48.810;2.134;2022-09-12T01:10:04;100222.59;;;16.88;82.55
70781;BME280;59514;48.810;2.134;2022-09-12T01:12:30;100215.53;;;16.87;83.00
70781;BME280;59514;48.810;2.134;2022-09-12T01:14:55;100214.47;;;16.88;82.57
70781;BME280;59514;48.810;2.134;2022-09-12T01:17:30;100209.03;;;16.78;82.64
70781;BME280;59514;48.810;2.134;2022-09-12T01:20:20;100205.22;;;16.74;83.21
70781;BME280;59514;48.810;2.134;2022-09-12T01:23:11;100200.03;;;16.67;83.27
70781;BME280;59514;48.810;2.134;2022-09-12T01:31:36;100191.66;;;16.64;83.55
70781;BME280;59514;48.810;2.134;2022-09-12T01:34:25;100188.66;;;16.65;83.53
70781;BME280;59514;48.810;2.134;2022-09-12T01:37:16;100187.84;;;16.65;83.38
70781;BME280;59514;48.810;2.134;2022-09-12T01:42:32;100184.88;;;16.56;83.77
70781;BME280;59514;48.810;2.134;2022-09-12T01:45:23;100183.50;;;16.59;83.63
70781;BME280;59514;48.810;2.134;2022-09-12T01:48:12;100183.75;;;16.57;83.79
70781;BME280;59514;48.810;2.134;2022-09-12T01:53:25;100179.13;;;16.53;83.92
70781;BME280;59514;48.810;2.134;2022-09-12T01:56:01;100182.66;;;16.53;83.79
70781;BME280;59514;48.810;2.134;2022-09-12T01:58:49;100176.44;;;16.53;83.94
70781;BME280;59514;48.810;2.134;2022-09-12T02:01:26;100175.09;;;16.55;83.79
70781;BME280;59514;48.810;2.134;2022-09-12T02:06:28;100172.66;;;16.54;84.23
70781;BME280;59514;48.810;2.134;2022-09-12T02:09:00;100175.09;;;16.50;83.78
70781;BME280;59514;48.810;2.134;2022-09-12T02:11:30;100168.06;;;16.54;83.58
70781;BME280;59514;48.810;2.134;2022-09-12T02:14:01;100165.31;;;16.49;83.75
70781;BME280;59514;48.810;2.134;2022-09-12T02:16:48;100166.13;;;16.50;83.96
70781;BME280;59514;48.810;2.134;2022-09-12T02:19:21;100166.69;;;16.52;83.71
70781;BME280;59514;48.810;2.134;2022-09-12T02:21:53;100157.44;;;16.48;83.90
70781;BME280;59514;48.810;2.134;2022-09-12T02:24:21;100155.50;;;16.43;84.40
70781;BME280;59514;48.810;2.134;2022-09-12T02:26:58;100159.59;;;16.46;83.99
70781;BME280;59514;48.810;2.134;2022-09-12T02:29:25;100156.88;;;16.46;84.15
70781;BME280;59514;48.810;2.134;2022-09-12T02:31:58;100151.44;;;16.40;84.46
70781;BME280;59514;48.810;2.134;2022-09-12T02:35:15;100139.50;;;16.36;84.08
70781;BME280;59514;48.810;2.134;2022-09-12T02:40:14;100140.88;;;16.34;84.38
70781;BME280;59514;48.810;2.134;2022-09-12T02:42:39;100143.31;;;16.35;84.43
70781;BME280;59514;48.810;2.134;2022-09-12T02:45:06;100139.00;;;16.39;84.22
70781;BME280;59514;48.810;2.134;2022-09-12T02:49:58;100128.13;;;16.34;84.36
70781;BME280;59514;48.810;2.134;2022-09-12T02:52:25;100133.28;;;16.36;84.39
70781;BME280;59514;48.810;2.134;2022-09-12T02:54:52;100123.81;;;16.33;84.66
70781;BME280;59514;48.810;2.134;2022-09-12T02:57:19;100121.34;;;16.27;85.04
70781;BME280;59514;48.810;2.134;2022-09-12T02:59:46;100121.09;;;16.33;84.50
70781;BME280;59514;48.810;2.134;2022-09-12T03:13:27;100112.13;;;16.18;85.43
70781;BME280;59514;48.810;2.134;2022-09-12T03:16:25;100110.22;;;16.13;85.70
70781;BME280;59514;48.810;2.134;2022-09-12T03:19:27;100110.78;;;16.20;85.50
70781;BME280;59514;48.810;2.134;2022-09-12T03:25:02;100099.94;;;16.25;84.70
70781;BME280;59514;48.810;2.134;2022-09-12T03:27:39;100097.25;;;16.20;84.83
70781;BME280;59514;48.810;2.134;2022-09-12T03:30:08;100098.31;;;16.19;85.23
70781;BME280;59514;48.810;2.134;2022-09-12T03:32:53;100093.97;;;16.18;85.33
70781;BME280;59514;48.810;2.134;2022-09-12T03:35:21;100100.75;;;16.21;85.78
70781;BME280;59514;48.810;2.134;2022-09-12T03:37:48;100091.81;;;16.20;85.18
70781;BME280;59514;48.810;2.134;2022-09-12T03:40:14;100087.47;;;16.14;85.50
70781;BME280;59514;48.810;2.134;2022-09-12T03:42:40;100091.53;;;16.12;85.47
70781;BME280;59514;48.810;2.134;2022-09-12T03:45:06;100093.41;;;16.11;85.81
70781;BME280;59514;48.810;2.134;2022-09-12T03:47:32;100090.44;;;16.13;85.53
70781;BME280;59514;48.810;2.134;2022-09-12T03:49:57;100092.91;;;16.14;85.63
70781;BME280;59514;48.810;2.134;2022-09-12T03:52:22;100096.13;;;16.06;85.74
70781;BME280;59514;48.810;2.134;2022-09-12T03:54:48;100096.13;;;16.06;85.66
70781;BME280;59514;48.810;2.134;2022-09-12T03:57:13;100096.13;;;16.06;85.83
70781;BME280;59514;48.810;2.134;2022-09-12T03:59:39;100094.47;;;16.05;85.94
70781;BME280;59514;48.810;2.134;2022-09-12T04:02:04;100094.47;;;16.00;86.26
70781;BME280;59514;48.810;2.134;2022-09-12T04:04:30;100101.00;;;16.04;86.22
70781;BME280;59514;48.810;2.134;2022-09-12T04:06:56;100102.88;;;16.04;85.90
70781;BME280;59514;48.810;2.134;2022-09-12T04:09:21;100102.34;;;16.02;85.96
70781;BME280;59514;48.810;2.134;2022-09-12T04:11:46;100105.84;;;15.97;86.19
70781;BME280;59514;48.810;2.134;2022-09-12T04:14:12;100112.84;;;15.93;86.49
70781;BME280;59514;48.810;2.134;2022-09-12T04:16:37;100119.06;;;15.89;86.81
70781;BME280;59514;48.810;2.134;2022-09-12T04:19:02;100109.06;;;15.89;86.55
70781;BME280;59514;48.810;2.134;2022-09-12T04:21:28;100121.25;;;15.92;86.74
70781;BME280;59514;48.810;2.134;2022-09-12T04:23:53;100109.59;;;15.91;86.62
70781;BME280;59514;48.810;2.134;2022-09-12T04:26:19;100112.31;;;15.91;86.68
70781;BME280;59514;48.810;2.134;2022-09-12T04:28:45;100112.84;;;15.93;86.75
70781;BME280;59514;48.810;2.134;2022-09-12T04:31:16;100106.88;;;15.86;86.33
70781;BME280;59514;48.810;2.134;2022-09-12T04:33:43;100100.94;;;15.84;86.96
70781;BME280;59514;48.810;2.134;2022-09-12T04:36:12;100096.31;;;15.75;87.50
70781;BME280;59514;48.810;2.134;2022-09-12T04:38:41;100098.19;;;15.74;87.05
70781;BME280;59514;48.810;2.134;2022-09-12T04:43:40;100084.94;;;15.73;87.25
70781;BME280;59514;48.810;2.134;2022-09-12T04:46:07;100087.34;;;15.74;86.87
70781;BME280;59514;48.810;2.134;2022-09-12T04:48:33;100081.41;;;15.77;86.90
70781;BME280;59514;48.810;2.134;2022-09-12T04:51:23;100079.78;;;15.76;86.83
70781;BME280;59514;48.810;2.134;2022-09-12T04:53:53;100084.63;;;15.69;87.06
70781;BME280;59514;48.810;2.134;2022-09-12T04:56:19;100085.44;;;15.65;87.26
70781;BME280;59514;48.810;2.134;2022-09-12T04:58:45;100089.19;;;15.64;87.57
70781;BME280;59514;48.810;2.134;2022-09-12T05:01:12;100086.78;;;15.67;87.43
70781;BME280;59514;48.810;2.134;2022-09-12T05:03:38;100085.69;;;15.63;87.33
70781;BME280;59514;48.810;2.134;2022-09-12T05:06:10;100088.66;;;15.57;87.67
70781;BME280;59514;48.810;2.134;2022-09-12T05:08:35;100087.00;;;15.56;87.57
70781;BME280;59514;48.810;2.134;2022-09-12T05:11:11;100080.75;;;15.50;88.09
70781;BME280;59514;48.810;2.134;2022-09-12T05:13:36;100079.44;;;15.52;88.36
70781;BME280;59514;48.810;2.134;2022-09-12T05:16:04;100078.88;;;15.56;88.04
70781;BME280;59514;48.810;2.134;2022-09-12T05:18:31;100069.41;;;15.53;87.99
70781;BME280;59514;48.810;2.134;2022-09-12T05:21:02;100070.50;;;15.57;87.73
70781;BME280;59514;48.810;2.134;2022-09-12T05:23:29;100070.50;;;15.57;87.58
70781;BME280;59514;48.810;2.134;2022-09-12T05:25:56;100073.19;;;15.57;87.73
70781;BME280;59514;48.810;2.134;2022-09-12T05:28:23;100071.03;;;15.54;88.19
70781;BME280;59514;48.810;2.134;2022-09-12T05:30:59;100069.69;;;15.57;88.20
70781;BME280;59514;48.810;2.134;2022-09-12T05:33:24;100071.88;;;15.60;87.47
70781;BME280;59514;48.810;2.134;2022-09-12T05:35:50;100063.75;;;15.60;87.64
70781;BME280;59514;48.810;2.134;2022-09-12T05:38:16;100081.63;;;15.61;88.01
70781;BME280;59514;48.810;2.134;2022-09-12T05:40:41;100078.91;;;15.61;87.43
70781;BME280;59514;48.810;2.134;2022-09-12T05:43:06;100075.41;;;15.60;87.20
70781;BME280;59514;48.810;2.134;2022-09-12T05:45:31;100080.81;;;15.60;87.74
70781;BME280;59514;48.810;2.134;2022-09-12T05:47:57;100073.22;;;15.62;87.58
70781;BME280;59514;48.810;2.134;2022-09-12T05:50:22;100069.16;;;15.60;88.40
70781;BME280;59514;48.810;2.134;2022-09-12T05:52:47;100058.09;;;15.66;87.45
70781;BME280;59514;48.810;2.134;2022-09-12T05:55:14;100076.50;;;15.69;87.86
70781;BME280;59514;48.810;2.134;2022-09-12T05:57:43;100071.66;;;15.76;87.24
70781;BME280;59514;48.810;2.134;2022-09-12T06:00:11;100072.72;;;15.75;87.34
70781;BME280;59514;48.810;2.134;2022-09-12T06:02:36;100074.09;;;15.78;86.86
70781;BME280;59514;48.810;2.134;2022-09-12T06:05:01;100078.19;;;15.80;87.47
70781;BME280;59514;48.810;2.134;2022-09-12T06:07:27;100082.50;;;15.81;87.09
70781;BME280;59514;48.810;2.134;2022-09-12T06:09:52;100083.88;;;15.79;87.33
70781;BME280;59514;48.810;2.134;2022-09-12T06:12:18;100075.97;;;15.77;87.07
70781;BME280;59514;48.810;2.134;2022-09-12T06:14:43;100088.47;;;15.78;87.28
70781;BME280;59514;48.810;2.134;2022-09-12T06:17:08;100082.50;;;15.81;87.18
70781;BME280;59514;48.810;2.134;2022-09-12T06:19:34;100085.75;;;15.83;87.28
70781;BME280;59514;48.810;2.134;2022-09-12T06:21:59;100089.06;;;16.05;86.51
70781;BME280;59514;48.810;2.134;2022-09-12T06:24:25;100095.59;;;16.14;86.17
70781;BME280;59514;48.810;2.134;2022-09-12T06:26:51;100093.47;;;16.26;85.58
70781;BME280;59514;48.810;2.134;2022-09-12T06:29:17;100092.91;;;16.39;85.02
70781;BME280;59514;48.810;2.134;2022-09-12T06:31:43;100081.81;;;16.41;85.27
70781;BME280;59514;48.810;2.134;2022-09-12T06:34:12;100095.66;;;16.50;84.37
70781;BME280;59514;48.810;2.134;2022-09-12T06:36:43;100098.91;;;16.57;83.87
70781;BME280;59514;48.810;2.134;2022-09-12T06:39:14;100094.03;;;16.54;84.38
70781;BME280;59514;48.810;2.134;2022-09-12T06:41:40;100093.22;;;16.48;84.00
70781;BME280;59514;48.810;2.134;2022-09-12T06:44:05;100087.78;;;16.38;84.48
70781;BME280;59514;48.810;2.134;2022-09-12T06:46:31;100099.69;;;16.37;84.46
70781;BME280;59514;48.810;2.134;2022-09-12T06:48:58;100104.03;;;16.28;85.14
70781;BME280;59514;48.810;2.134;2022-09-12T06:51:25;100094.53;;;16.25;84.84
70781;BME280;59514;48.810;2.134;2022-09-12T06:53:53;100089.91;;;16.31;85.13
70781;BME280;59514;48.810;2.134;2022-09-12T06:56:21;100094.81;;;16.34;85.50
70781;BME280;59514;48.810;2.134;2022-09-12T06:58:48;100098.59;;;16.28;85.00
70781;BME280;59514;48.810;2.134;2022-09-12T07:01:23;100097.78;;;16.27;85.67
70781;BME280;59514;48.810;2.134;2022-09-12T07:03:51;100099.69;;;16.32;85.75
70781;BME280;59514;48.810;2.134;2022-09-12T07:06:19;100091.28;;;16.33;85.43
70781;BME280;59514;48.810;2.134;2022-09-12T07:08:45;100095.59;;;16.34;85.60
70781;BME280;59514;48.810;2.134;2022-09-12T07:11:22;100091.00;;;16.35;85.55
70781;BME280;59514;48.810;2.134;2022-09-12T07:13:53;100094.81;;;16.39;85.48
70781;BME280;59514;48.810;2.134;2022-09-12T07:16:19;100090.25;;;16.50;84.60
70781;BME280;59514;48.810;2.134;2022-09-12T07:18:58;100088.59;;;16.49;85.07
70781;BME280;59514;48.810;2.134;2022-09-12T07:21:24;100089.44;;;16.49;84.74
70781;BME280;59514;48.810;2.134;2022-09-12T07:23:50;100094.56;;;16.51;84.74
70781;BME280;59514;48.810;2.134;2022-09-12T07:26:16;100084.28;;;16.53;84.17
70781;BME280;59514;48.810;2.134;2022-09-12T07:28:42;100088.63;;;16.59;84.35
70781;BME280;59514;48.810;2.134;2022-09-12T07:31:10;100095.13;;;16.63;84.23
70781;BME280;59514;48.810;2.134;2022-09-12T07:33:37;100094.03;;;16.69;84.12
70781;BME280;59514;48.810;2.134;2022-09-12T07:36:05;100095.38;;;16.76;84.52
70781;BME280;59514;48.810;2.134;2022-09-12T07:38:31;100090.50;;;16.83;83.18
70781;BME280;59514;48.810;2.134;2022-09-12T07:40:56;100095.91;;;16.88;83.01
70781;BME280;59514;48.810;2.134;2022-09-12T07:43:22;100092.41;;;16.93;82.59
70781;BME280;59514;48.810;2.134;2022-09-12T07:45:47;100082.63;;;16.97;82.62
70781;BME280;59514;48.810;2.134;2022-09-12T07:48:13;100086.41;;;17.01;82.81
70781;BME280;59514;48.810;2.134;2022-09-12T07:50:38;100081.25;;;17.04;82.84
70781;BME280;59514;48.810;2.134;2022-09-12T07:53:04;100081.53;;;17.08;82.49
70781;BME280;59514;48.810;2.134;2022-09-12T07:55:30;100075.28;;;17.12;82.40
70781;BME280;59514;48.810;2.134;2022-09-12T07:57:55;100076.91;;;17.13;81.92
70781;BME280;59514;48.810;2.134;2022-09-12T08:00:21;100077.72;;;17.19;81.86
70781;BME280;59514;48.810;2.134;2022-09-12T08:02:51;100082.56;;;17.27;81.60
70781;BME280;59514;48.810;2.134;2022-09-12T08:05:17;100082.81;;;17.36;81.03
70781;BME280;59514;48.810;2.134;2022-09-12T08:07:42;100084.16;;;17.43;81.17
70781;BME280;59514;48.810;2.134;2022-09-12T08:10:08;100083.09;;;17.49;79.85
70781;BME280;59514;48.810;2.134;2022-09-12T08:12:34;100085.75;;;17.54;80.32
70781;BME280;59514;48.810;2.134;2022-09-12T08:14:59;100077.06;;;17.57;80.39
70781;BME280;59514;48.810;2.134;2022-09-12T08:17:25;100082.47;;;17.62;79.88
70781;BME280;59514;48.810;2.134;2022-09-12T08:19:50;100078.66;;;17.68;80.15
70781;BME280;59514;48.810;2.134;2022-09-12T08:22:16;100077.53;;;17.74;79.70
70781;BME280;59514;48.810;2.134;2022-09-12T08:24:46;100091.63;;;17.81;78.87
70781;BME280;59514;48.810;2.134;2022-09-12T08:27:12;100084.28;;;17.87;78.90
70781;BME280;59514;48.810;2.134;2022-09-12T08:29:37;100082.34;;;17.92;79.05
70781;BME280;59514;48.810;2.134;2022-09-12T08:32:02;100085.81;;;17.98;78.06
70781;BME280;59514;48.810;2.134;2022-09-12T08:34:28;100091.78;;;18.05;77.80
70781;BME280;59514;48.810;2.134;2022-09-12T08:36:53;100093.09;;;18.13;77.80
70781;BME280;59514;48.810;2.134;2022-09-12T08:39:19;100094.97;;;18.17;78.13
70781;BME280;59514;48.810;2.134;2022-09-12T08:41:47;100089.19;;;18.24;77.85
70781;BME280;59514;48.810;2.134;2022-09-12T08:44:25;100086.72;;;18.32;77.05
70781;BME280;59514;48.810;2.134;2022-09-12T08:47:13;100080.97;;;18.39;76.72
70781;BME280;59514;48.810;2.134;2022-09-12T08:49:50;100095.34;;;18.44;76.01
70781;BME280;59514;48.810;2.134;2022-09-12T08:55:04;100080.84;;;18.59;76.02
70781;BME280;59514;48.810;2.134;2022-09-12T08:57:31;100070.50;;;18.61;75.24
70781;BME280;59514;48.810;2.134;2022-09-12T08:59:56;100068.81;;;18.65;74.82
70781;BME280;59514;48.810;2.134;2022-09-12T09:10:47;100064.41;;;18.98;74.18
70781;BME280;59514;48.810;2.134;2022-09-12T09:18:56;100058.47;;;19.19;72.07
70781;BME280;59514;48.810;2.134;2022-09-12T09:21:31;100069.84;;;19.26;71.68
70781;BME280;59514;48.810;2.134;2022-09-12T09:24:04;100063.81;;;19.29;71.06
70781;BME280;59514;48.810;2.134;2022-09-12T09:26:42;100060.25;;;19.34;70.80
70781;BME280;59514;48.810;2.134;2022-09-12T09:29:15;100061.19;;;19.48;70.46
70781;BME280;59514;48.810;2.134;2022-09-12T09:31:45;100064.22;;;19.46;70.63
70781;BME280;59514;48.810;2.134;2022-09-12T09:34:23;100058.25;;;19.44;70.31
70781;BME280;59514;48.810;2.134;2022-09-12T09:36:54;100061.72;;;19.50;69.74
70781;BME280;59514;48.810;2.134;2022-09-12T09:42:30;100055.94;;;19.75;69.33
70781;BME280;59514;48.810;2.134;2022-09-12T09:45:02;100059.69;;;19.79;69.14
70781;BME280;59514;48.810;2.134;2022-09-12T09:47:28;100055.56;;;19.82;68.83
70781;BME280;59514;48.810;2.134;2022-09-12T09:49:54;100058.22;;;19.87;69.12
70781;BME280;59514;48.810;2.134;2022-09-12T09:52:25;100048.00;;;19.97;68.60
70781;BME280;59514;48.810;2.134;2022-09-12T09:54:58;100043.72;;;20.10;67.22
70781;BME280;59514;48.810;2.134;2022-09-12T09:57:37;100038.78;;;20.30;66.19
70781;BME280;59514;48.810;2.134;2022-09-12T10:05:48;100030.44;;;20.40;66.24
70781;BME280;59514;48.810;2.134;2022-09-12T10:13:39;100021.59;;;20.48;64.95
70781;BME280;59514;48.810;2.134;2022-09-12T10:16:26;100024.78;;;20.69;63.30
70781;BME280;59514;48.810;2.134;2022-09-12T10:18:54;100025.38;;;20.66;63.12
70781;BME280;59514;48.810;2.134;2022-09-12T10:21:32;100030.13;;;20.74;62.55
70781;BME280;59514;48.810;2.134;2022-09-12T10:24:02;100017.44;;;20.83;62.20
70781;BME280;59514;48.810;2.134;2022-09-12T10:26:38;100022.75;;;21.20;60.21
70781;BME280;59514;48.810;2.134;2022-09-12T10:29:13;100027.13;;;21.21;60.06
70781;BME280;59514;48.810;2.134;2022-09-12T10:31:46;100027.41;;;21.20;59.87
70781;BME280;59514;48.810;2.134;2022-09-12T10:34:33;100017.22;;;21.25;59.92
70781;BME280;59514;48.810;2.134;2022-09-12T10:37:08;100020.25;;;21.37;59.26
70781;BME280;59514;48.810;2.134;2022-09-12T10:39:36;100012.63;;;21.34;59.00
70781;BME280;59514;48.810;2.134;2022-09-12T10:42:03;100007.19;;;21.34;59.09
70781;BME280;59514;48.810;2.134;2022-09-12T10:44:31;100013.03;;;21.55;58.96
70781;BME280;59514;48.810;2.134;2022-09-12T10:46:58;100015.75;;;21.69;57.98
70781;BME280;59514;48.810;2.134;2022-09-12T10:49:29;100009.47;;;21.68;58.49
70781;BME280;59514;48.810;2.134;2022-09-12T10:51:57;100018.06;;;21.62;59.64
70781;BME280;59514;48.810;2.134;2022-09-12T10:54:40;100016.84;;;21.68;59.50
70781;BME280;59514;48.810;2.134;2022-09-12T10:57:28;100017.66;;;21.68;59.21
70781;BME280;59514;48.810;2.134;2022-09-12T11:00:07;100017.84;;;21.72;58.62
70781;BME280;59514;48.810;2.134;2022-09-12T11:05:47;100017.66;;;21.82;56.25
70781;BME280;59514;48.810;2.134;2022-09-12T11:08:39;100024.75;;;21.83;56.03
70781;BME280;59514;48.810;2.134;2022-09-12T11:11:38;100017.56;;;21.87;56.35
70781;BME280;59514;48.810;2.134;2022-09-12T11:17:01;100013.72;;;22.10;56.63
70781;BME280;59514;48.810;2.134;2022-09-12T11:25:22;99985.56;;;22.09;56.50
70781;BME280;59514;48.810;2.134;2022-09-12T11:33:56;99974.59;;;22.23;57.56
70781;BME280;59514;48.810;2.134;2022-09-12T11:41:28;99962.50;;;22.46;56.59
70781;BME280;59514;48.810;2.134;2022-09-12T11:43:57;99961.75;;;22.54;56.19
70781;BME280;59514;48.810;2.134;2022-09-12T11:46:30;99958.41;;;22.57;56.20
70781;BME280;59514;48.810;2.134;2022-09-12T11:49:12;99958.44;;;22.66;55.62
70781;BME280;59514;48.810;2.134;2022-09-12T11:57:29;99944.38;;;22.89;55.08
70781;BME280;59514;48.810;2.134;2022-09-12T12:00:05;99948.34;;;23.14;54.90
70781;BME280;59514;48.810;2.134;2022-09-12T12:08:03;99944.03;;;25.63;47.58
70781;BME280;59514;48.810;2.134;2022-09-12T12:10:38;99936.25;;;26.06;45.64
70781;BME280;59514;48.810;2.134;2022-09-12T12:13:38;99945.28;;;26.27;45.11
70781;BME280;59514;48.810;2.134;2022-09-12T12:18:43;99944.75;;;27.03;43.09
70781;BME280;59514;48.810;2.134;2022-09-12T12:29:11;99946.00;;;27.54;41.20
70781;BME280;59514;48.810;2.134;2022-09-12T12:34:37;99945.53;;;28.74;38.43
70781;BME280;59514;48.810;2.134;2022-09-12T12:47:43;99949.00;;;32.17;32.64
70781;BME280;59514;48.810;2.134;2022-09-12T12:52:51;99937.91;;;32.54;31.01
70781;BME280;59514;48.810;2.134;2022-09-12T12:55:23;99935.63;;;32.67;30.77
70781;BME280;59514;48.810;2.134;2022-09-12T12:57:51;99926.06;;;33.04;31.26
70781;BME280;59514;48.810;2.134;2022-09-12T13:05:26;99931.00;;;33.29;30.31
70781;BME280;59514;48.810;2.134;2022-09-12T13:07:55;99916.09;;;33.58;30.13
70781;BME280;59514;48.810;2.134;2022-09-12T13:10:24;99923.44;;;33.98;29.30
70781;BME280;59514;48.810;2.134;2022-09-12T13:12:54;99920.38;;;34.34;28.90
70781;BME280;59514;48.810;2.134;2022-09-12T13:18:01;99901.16;;;34.01;28.37
70781;BME280;59514;48.810;2.134;2022-09-12T13:20:30;99900.63;;;33.06;29.72
70781;BME280;59514;48.810;2.134;2022-09-12T13:22:57;99893.56;;;31.95;31.55
70781;BME280;59514;48.810;2.134;2022-09-12T13:25:34;99886.13;;;31.43;32.98
70781;BME280;59514;48.810;2.134;2022-09-12T13:28:15;99875.91;;;30.98;33.27
70781;BME280;59514;48.810;2.134;2022-09-12T13:31:26;99871.44;;;31.16;33.33
70781;BME280;59514;48.810;2.134;2022-09-12T13:33:44;99868.50;;;31.06;33.49
70781;BME280;59514;48.810;2.134;2022-09-12T13:36:28;99867.44;;;30.65;34.63
70781;BME280;59514;48.810;2.134;2022-09-12T13:42:27;99864.31;;;30.25;35.74
70781;BME280;59514;48.810;2.134;2022-09-12T13:44:54;99872.88;;;30.16;36.00
70781;BME280;59514;48.810;2.134;2022-09-12T13:47:31;99869.25;;;29.93;36.06
70781;BME280;59514;48.810;2.134;2022-09-12T13:49:59;99864.09;;;29.92;36.43
70781;BME280;59514;48.810;2.134;2022-09-12T13:52:29;99868.91;;;29.95;35.91
70781;BME280;59514;48.810;2.134;2022-09-12T13:54:57;99862.19;;;29.96;35.26
70781;BME280;59514;48.810;2.134;2022-09-12T13:57:30;99858.56;;;29.72;36.14
70781;BME280;59514;48.810;2.134;2022-09-12T13:59:57;99850.47;;;29.83;36.16
70781;BME280;59514;48.810;2.134;2022-09-12T14:02:25;99850.84;;;29.82;35.75
70781;BME280;59514;48.810;2.134;2022-09-12T14:04:52;99846.53;;;29.84;36.33
70781;BME280;59514;48.810;2.134;2022-09-12T14:07:58;99845.44;;;29.89;36.64
70781;BME280;59514;48.810;2.134;2022-09-12T14:10:36;99840.34;;;29.91;36.84
70781;BME280;59514;48.810;2.134;2022-09-12T14:13:10;99841.13;;;29.91;36.78
70781;BME280;59514;48.810;2.134;2022-09-12T14:15:37;99834.59;;;29.80;37.01
70781;BME280;59514;48.810;2.134;2022-09-12T14:18:05;99831.03;;;29.80;38.17
70781;BME280;59514;48.810;2.134;2022-09-12T14:20:37;99825.53;;;29.83;37.83
70781;BME280;59514;48.810;2.134;2022-09-12T14:25:42;99818.91;;;29.88;36.72
70781;BME280;59514;48.810;2.134;2022-09-12T14:28:13;99822.06;;;29.86;36.77
70781;BME280;59514;48.810;2.134;2022-09-12T14:31:05;99820.44;;;29.66;36.03
70781;BME280;59514;48.810;2.134;2022-09-12T14:33:45;99808.72;;;29.53;36.64
70781;BME280;59514;48.810;2.134;2022-09-12T14:39:04;99806.25;;;29.48;37.04
70781;BME280;59514;48.810;2.134;2022-09-12T14:41:34;99793.13;;;29.45;37.17
70781;BME280;59514;48.810;2.134;2022-09-12T14:44:03;99793.44;;;29.40;37.35
70781;BME280;59514;48.810;2.134;2022-09-12T14:46:38;99796.34;;;29.47;36.83
70781;BME280;59514;48.810;2.134;2022-09-12T14:49:14;99801.09;;;29.47;36.09
70781;BME280;59514;48.810;2.134;2022-09-12T14:59:36;99783.09;;;29.37;37.18
70781;BME280;59514;48.810;2.134;2022-09-12T15:04:49;99777.13;;;29.35;36.98
70781;BME280;59514;48.810;2.134;2022-09-12T15:07:38;99763.28;;;29.35;36.22
70781;BME280;59514;48.810;2.134;2022-09-12T15:10:33;99769.25;;;29.37;37.03
70781;BME280;59514;48.810;2.134;2022-09-12T15:15:34;99769.69;;;29.20;37.17
70781;BME280;59514;48.810;2.134;2022-09-12T15:18:01;99767.47;;;29.10;37.44
70781;BME280;59514;48.810;2.134;2022-09-12T15:20:27;99768.94;;;29.04;37.32
70781;BME280;59514;48.810;2.134;2022-09-12T15:22:53;99776.41;;;29.04;37.47
70781;BME280;59514;48.810;2.134;2022-09-12T15:25:18;99769.44;;;29.10;37.67
70781;BME280;59514;48.810;2.134;2022-09-12T15:27:47;99769.22;;;28.99;36.63
70781;BME280;59514;48.810;2.134;2022-09-12T15:30:14;99772.56;;;28.89;36.65
70781;BME280;59514;48.810;2.134;2022-09-12T15:32:41;99763.44;;;28.88;37.21
70781;BME280;59514;48.810;2.134;2022-09-12T15:35:17;99756.75;;;28.89;37.57
70781;BME280;59514;48.810;2.134;2022-09-12T15:37:43;99765.91;;;28.93;36.58
70781;BME280;59514;48.810;2.134;2022-09-12T15:40:10;99776.03;;;28.86;36.59
70781;BME280;59514;48.810;2.134;2022-09-12T15:42:35;99772.75;;;28.80;37.01
70781;BME280;59514;48.810;2.134;2022-09-12T15:45:00;99769.28;;;28.68;36.64
70781;BME280;59514;48.810;2.134;2022-09-12T15:47:26;99765.13;;;28.58;37.65